Time;durP1;ratioP1;P1;durP2;ratioP2;P2;SDS_P1;SDS_P2;PMS_P1;PMS_P2;Temp;Humidity;BMP_temperature;BMP_pressure;BME280_temperature;BME280_humidity;BME280_pressure;Samples;Min_cycle;Max_cycle;Signal;HPM_P1;HPM_P2
2023/09/19 00:03:20;;;;;;;8.85;1.90;;;15.00;99.90;;;;;;7303423;32;20497;-54
2023/09/19 00:07:22;;;;;;;4.72;1.80;;;14.90;99.90;;;;;;7302760;32;20156;-54
2023/09/19 00:11:25;;;;;;;6.95;1.95;;;14.90;99.90;;;;;;7303801;32;20122;-54
2023/09/19 00:15:28;;;;;;;6.68;1.70;;;14.90;99.90;;;;;;7295291;32;20123;-54
2023/09/19 00:19:30;;;;;;;10.68;2.20;;;14.90;99.90;;;;;;7308069;32;20218;-55
2023/09/19 00:23:32;;;;;;;16.70;2.40;;;14.80;99.90;;;;;;7294030;32;20214;-55
2023/09/19 00:27:34;;;;;;;11.95;2.30;;;14.80;99.90;;;;;;7274175;32;20449;-54
2023/09/19 00:31:37;;;;;;;7.90;2.00;;;14.70;99.90;;;;;;7303869;32;20817;-54
2023/09/19 00:35:50;;;;;;;9.80;1.83;;;14.80;99.90;;;;;;7302201;32;20134;-54
2023/09/19 00:39:52;;;;;;;11.70;1.90;;;14.80;99.90;;;;;;7305047;32;20610;-54
2023/09/19 00:43:53;;;;;;;8.75;1.95;;;14.70;99.90;;;;;;7285781;32;20115;-55
2023/09/19 00:47:57;;;;;;;8.93;1.80;;;14.80;99.90;;;;;;7286694;32;20108;-55
2023/09/19 00:51:59;;;;;;;7.57;1.58;;;14.80;99.90;;;;;;7294147;32;20178;-55
2023/09/19 00:56:03;;;;;;;10.35;2.10;;;14.70;99.90;;;;;;7292761;32;20111;-55
2023/09/19 01:00:19;;;;;;;6.95;1.62;;;14.70;99.90;;;;;;7288876;32;20520;-54
2023/09/19 01:04:22;;;;;;;14.35;1.90;;;14.70;99.90;;;;;;7288372;32;20162;-54
2023/09/19 01:08:29;;;;;;;11.23;2.10;;;14.70;99.90;;;;;;7275159;32;20482;-54
2023/09/19 01:12:49;;;;;;;10.65;1.62;;;14.70;99.90;;;;;;7299418;32;20100;-54
2023/09/19 01:17:03;;;;;;;13.82;1.83;;;14.70;99.90;;;;;;7314775;32;20163;-55
2023/09/19 01:21:30;;;;;;;13.05;2.20;;;14.70;99.90;;;;;;7300160;32;20390;-54
2023/09/19 01:25:52;;;;;;;10.65;1.90;;;14.70;99.90;;;;;;7294024;32;20600;-55
2023/09/19 01:30:14;;;;;;;6.75;1.60;;;14.70;99.90;;;;;;7303979;32;20120;-54
2023/09/19 01:34:18;;;;;;;11.18;2.17;;;14.70;99.90;;;;;;7291253;32;20662;-54
2023/09/19 01:38:20;;;;;;;10.23;2.03;;;14.70;99.90;;;;;;7290771;32;20266;-54
2023/09/19 01:42:37;;;;;;;13.23;2.30;;;14.70;99.90;;;;;;7276133;32;20123;-54
2023/09/19 01:46:41;;;;;;;9.02;2.22;;;14.70;99.90;;;;;;7305082;32;20562;-54
2023/09/19 01:51:05;;;;;;;12.05;2.12;;;14.70;99.90;;;;;;7284447;32;20206;-55
2023/09/19 01:55:10;;;;;;;7.28;1.60;;;14.70;99.90;;;;;;7300593;32;20120;-54
2023/09/19 01:59:16;;;;;;;7.60;1.50;;;14.70;99.90;;;;;;7287535;32;20116;-54
2023/09/19 02:03:22;;;;;;;7.60;1.90;;;14.60;99.90;;;;;;7301321;32;20183;-54
2023/09/19 02:07:24;;;;;;;10.48;1.90;;;14.70;99.90;;;;;;7283624;32;20130;-54
2023/09/19 02:11:26;;;;;;;9.88;1.77;;;14.60;99.90;;;;;;7300353;32;20107;-54
2023/09/19 02:15:27;;;;;;;8.18;1.77;;;14.60;99.90;;;;;;7302614;32;20120;-54
2023/09/19 02:19:30;;;;;;;6.32;1.70;;;14.60;99.90;;;;;;7288421;32;20112;-53
2023/09/19 02:23:33;;;;;;;7.68;1.90;;;14.60;99.90;;;;;;7290104;32;20173;-54
2023/09/19 02:27:35;;;;;;;7.28;1.77;;;14.60;99.90;;;;;;7298421;32;20518;-54
2023/09/19 02:31:37;;;;;;;15.57;1.83;;;14.60;99.90;;;;;;7307936;32;20253;-54
2023/09/19 02:35:39;;;;;;;16.37;2.20;;;14.60;99.90;;;;;;7292375;32;20215;-53
2023/09/19 02:39:42;;;;;;;17.15;2.40;;;14.50;99.90;;;;;;7292425;32;20781;-54
2023/09/19 02:43:43;;;;;;;10.77;2.05;;;14.50;99.90;;;;;;7279368;32;20694;-54
2023/09/19 02:47:49;;;;;;;11.27;2.05;;;14.50;99.90;;;;;;7278453;32;20180;-55
2023/09/19 02:51:51;;;;;;;9.02;1.60;;;14.50;99.90;;;;;;7304801;32;20139;-55
2023/09/19 02:55:54;;;;;;;8.00;1.80;;;14.40;99.90;;;;;;7286653;32;20203;-54
2023/09/19 02:59:56;;;;;;;13.38;2.10;;;14.40;99.90;;;;;;7279482;32;20266;-54
2023/09/19 03:03:58;;;;;;;12.23;1.52;;;14.40;99.90;;;;;;7309985;32;20443;-55
2023/09/19 03:08:00;;;;;;;9.25;1.58;;;14.30;99.90;;;;;;7296997;32;20430;-55
2023/09/19 03:12:04;;;;;;;11.57;1.80;;;14.20;99.90;;;;;;7273223;32;20140;-55
2023/09/19 03:16:05;;;;;;;12.32;1.70;;;14.30;99.90;;;;;;7306122;32;20881;-55
2023/09/19 03:20:08;;;;;;;12.57;1.70;;;14.30;99.90;;;;;;7295055;32;20120;-55
2023/09/19 03:24:11;;;;;;;11.07;1.48;;;14.30;99.90;;;;;;7293311;32;20116;-55
2023/09/19 03:28:13;;;;;;;13.20;2.20;;;14.30;99.90;;;;;;7299483;32;20477;-56
2023/09/19 03:32:15;;;;;;;13.57;2.22;;;14.20;99.90;;;;;;7288774;32;20464;-55
2023/09/19 03:36:16;;;;;;;8.50;1.58;;;14.30;99.90;;;;;;7298122;32;20153;-55
2023/09/19 03:40:21;;;;;;;10.40;1.92;;;14.30;99.90;;;;;;7294066;32;20138;-55
2023/09/19 03:44:23;;;;;;;8.25;1.87;;;14.20;99.90;;;;;;7310050;32;20375;-55
2023/09/19 03:48:25;;;;;;;9.43;1.73;;;14.20;99.90;;;;;;7296763;32;20565;-55
2023/09/19 03:52:26;;;;;;;10.73;2.12;;;14.20;99.90;;;;;;7265394;32;20131;-55
2023/09/19 03:56:28;;;;;;;10.20;1.80;;;14.10;99.90;;;;;;7296257;32;20138;-55
2023/09/19 04:00:30;;;;;;;11.57;2.17;;;14.20;99.90;;;;;;7293789;32;20239;-55
2023/09/19 04:04:32;;;;;;;7.85;1.50;;;14.10;99.90;;;;;;7303540;32;20128;-55
2023/09/19 04:08:33;;;;;;;7.85;2.00;;;14.20;99.90;;;;;;7302575;32;20225;-55
2023/09/19 04:12:35;;;;;;;10.50;1.90;;;14.10;99.90;;;;;;7288777;32;20242;-54
2023/09/19 04:16:38;;;;;;;10.63;1.60;;;14.10;99.90;;;;;;7295522;32;20108;-55
2023/09/19 04:20:40;;;;;;;10.23;1.80;;;14.20;99.90;;;;;;7292776;32;20241;-55
2023/09/19 04:24:42;;;;;;;10.85;1.70;;;14.10;99.90;;;;;;7307941;32;20537;-55
2023/09/19 04:28:45;;;;;;;14.98;1.90;;;14.20;99.90;;;;;;7301111;32;20134;-54
2023/09/19 04:32:50;;;;;;;9.85;1.60;;;14.20;99.90;;;;;;7275053;32;20177;-55
2023/09/19 04:36:53;;;;;;;12.98;2.20;;;14.20;99.90;;;;;;7285811;32;20104;-55
2023/09/19 04:40:58;;;;;;;6.35;1.85;;;14.20;99.90;;;;;;7300178;32;20541;-55
2023/09/19 04:45:00;;;;;;;8.40;2.05;;;14.20;99.90;;;;;;7290092;32;20431;-55
2023/09/19 04:49:02;;;;;;;10.20;2.00;;;14.20;99.90;;;;;;7298755;32;20195;-55
2023/09/19 04:53:05;;;;;;;10.52;1.67;;;14.20;99.90;;;;;;7282550;32;20129;-55
2023/09/19 04:57:06;;;;;;;13.18;2.15;;;14.20;99.90;;;;;;7296186;32;20249;-55
2023/09/19 05:01:11;;;;;;;14.98;2.67;;;14.20;99.90;;;;;;7299554;32;20601;-55
2023/09/19 05:05:14;;;;;;;10.15;2.05;;;14.20;99.90;;;;;;7298121;32;20134;-55
2023/09/19 05:09:19;;;;;;;14.10;2.17;;;14.20;99.90;;;;;;7278024;32;20832;-54
2023/09/19 05:13:23;;;;;;;7.15;1.83;;;14.20;99.90;;;;;;7301569;32;20257;-55
2023/09/19 05:17:25;;;;;;;10.25;1.92;;;14.20;99.90;;;;;;7298806;32;20219;-55
2023/09/19 05:21:28;;;;;;;11.02;1.75;;;14.10;99.90;;;;;;7303965;32;20161;-56
2023/09/19 05:25:36;;;;;;;11.93;1.60;;;14.20;99.90;;;;;;7300718;32;20116;-55
2023/09/19 05:29:38;;;;;;;10.00;1.67;;;14.20;99.90;;;;;;7308522;32;20247;-55
2023/09/19 05:33:40;;;;;;;9.82;2.05;;;14.20;99.90;;;;;;7291284;32;20213;-55
2023/09/19 05:37:42;;;;;;;9.13;1.83;;;14.30;99.90;;;;;;7295851;32;20105;-55
2023/09/19 05:41:44;;;;;;;8.23;1.73;;;14.30;99.90;;;;;;7308580;32;20266;-55
2023/09/19 05:45:46;;;;;;;13.48;2.10;;;14.40;99.90;;;;;;7301235;32;20155;-56
2023/09/19 05:49:49;;;;;;;12.60;2.37;;;14.50;99.90;;;;;;7296059;32;20130;-55
2023/09/19 05:53:54;;;;;;;11.25;1.98;;;14.60;99.90;;;;;;7301836;32;20508;-55
2023/09/19 05:57:56;;;;;;;11.82;2.08;;;14.60;99.90;;;;;;7314937;32;20130;-55
2023/09/19 06:01:59;;;;;;;15.27;2.03;;;14.60;99.90;;;;;;7303023;32;20116;-56
2023/09/19 06:06:02;;;;;;;10.45;2.10;;;14.60;99.90;;;;;;7305361;32;20598;-56
2023/09/19 06:10:08;;;;;;;9.15;1.92;;;14.60;99.90;;;;;;7282373;32;20149;-55
2023/09/19 06:14:10;;;;;;;12.80;2.10;;;14.70;99.90;;;;;;7305078;32;20154;-55
2023/09/19 06:18:17;;;;;;;11.30;1.65;;;14.70;99.90;;;;;;7306015;32;20208;-55
2023/09/19 06:22:19;;;;;;;11.25;2.20;;;14.70;99.90;;;;;;7305820;32;20115;-54
2023/09/19 06:26:21;;;;;;;10.75;2.10;;;14.70;99.90;;;;;;7279145;32;20190;-55
2023/09/19 06:30:24;;;;;;;14.77;2.75;;;14.70;99.90;;;;;;7308917;32;20149;-55
2023/09/19 06:34:27;;;;;;;12.50;2.22;;;14.80;99.90;;;;;;7298048;32;20158;-58
2023/09/19 06:38:29;;;;;;;8.90;2.25;;;14.80;99.90;;;;;;7302006;32;20116;-56
2023/09/19 06:42:30;;;;;;;12.25;2.28;;;14.90;99.90;;;;;;7294738;32;20558;-57
2023/09/19 06:46:34;;;;;;;15.43;2.60;;;14.90;99.90;;;;;;7304794;32;20823;-55
2023/09/19 06:50:36;;;;;;;12.30;1.95;;;14.90;99.90;;;;;;7302423;32;20216;-55
2023/09/19 06:54:39;;;;;;;10.48;2.40;;;15.00;99.90;;;;;;7300402;32;20180;-55
2023/09/19 06:58:43;;;;;;;11.35;2.17;;;15.00;99.90;;;;;;7308671;32;20190;-56
2023/09/19 07:02:45;;;;;;;10.85;2.35;;;15.00;99.90;;;;;;7305475;32;20221;-55
2023/09/19 07:06:50;;;;;;;12.15;2.53;;;15.10;99.90;;;;;;7301463;32;20108;-55
2023/09/19 07:10:52;;;;;;;13.18;1.83;;;15.10;99.90;;;;;;7294868;32;20144;-56
2023/09/19 07:14:54;;;;;;;7.75;1.67;;;15.10;99.90;;;;;;7306360;32;20254;-56
2023/09/19 07:18:57;;;;;;;10.55;1.77;;;15.10;99.90;;;;;;7302236;32;20300;-56
2023/09/19 07:22:59;;;;;;;12.57;2.15;;;15.20;99.90;;;;;;7291742;32;20134;-56
2023/09/19 07:27:01;;;;;;;10.15;2.15;;;15.30;99.90;;;;;;7294229;32;20233;-55
2023/09/19 07:31:04;;;;;;;11.73;1.87;;;15.40;99.90;;;;;;7300313;32;20113;-56
2023/09/19 07:35:07;;;;;;;10.15;2.25;;;15.40;99.90;;;;;;7299179;32;20206;-56
2023/09/19 07:39:09;;;;;;;6.15;1.45;;;15.50;99.90;;;;;;7299028;32;20120;-56
2023/09/19 07:43:25;;;;;;;10.63;1.90;;;15.50;99.90;;;;;;7302236;32;20193;-57
2023/09/19 07:47:27;;;;;;;12.77;1.80;;;15.60;99.90;;;;;;7305751;32;20629;-57
2023/09/19 07:51:29;;;;;;;12.98;2.12;;;15.60;99.90;;;;;;7293897;32;20238;-57
2023/09/19 07:55:30;;;;;;;11.30;1.60;;;15.70;99.90;;;;;;7301320;32;20111;-57
2023/09/19 07:59:34;;;;;;;9.88;1.77;;;15.60;99.90;;;;;;7302220;32;22663;-57
2023/09/19 08:03:41;;;;;;;14.50;2.22;;;15.70;99.90;;;;;;7301625;32;20352;-57
2023/09/19 08:07:48;;;;;;;9.60;2.10;;;15.80;99.90;;;;;;7298976;32;20136;-57
2023/09/19 08:11:50;;;;;;;13.48;2.15;;;15.90;99.90;;;;;;7298533;32;20135;-56
2023/09/19 08:15:53;;;;;;;5.45;1.58;;;16.00;99.90;;;;;;7302022;32;20547;-57
2023/09/19 08:19:55;;;;;;;11.63;1.95;;;16.10;99.90;;;;;;7301143;32;20198;-56
2023/09/19 08:23:57;;;;;;;7.85;1.67;;;16.20;99.90;;;;;;7303056;32;20282;-57
2023/09/19 08:28:01;;;;;;;14.05;2.12;;;16.20;99.90;;;;;;7302913;32;20111;-56
2023/09/19 08:32:03;;;;;;;9.25;1.80;;;16.30;99.90;;;;;;7299153;32;20153;-57
2023/09/19 08:36:07;;;;;;;11.98;1.70;;;16.30;99.90;;;;;;7297457;32;20208;-57
2023/09/19 08:40:09;;;;;;;10.05;1.87;;;16.40;99.90;;;;;;7304762;32;20126;-57
2023/09/19 08:44:11;;;;;;;11.82;2.20;;;16.60;99.90;;;;;;7303486;32;20499;-56
2023/09/19 08:48:25;;;;;;;13.75;2.33;;;16.80;99.90;;;;;;7305666;32;20292;-57
2023/09/19 08:52:33;;;;;;;8.43;1.50;;;17.00;99.90;;;;;;7299765;32;20591;-58
2023/09/19 08:56:39;;;;;;;8.85;1.83;;;16.90;99.90;;;;;;7297048;32;20264;-58
2023/09/19 09:00:43;;;;;;;8.60;1.80;;;17.00;99.90;;;;;;7291373;32;20474;-57
2023/09/19 09:04:47;;;;;;;11.00;1.70;;;17.10;99.90;;;;;;7300223;32;20214;-57
2023/09/19 09:08:51;;;;;;;10.70;1.60;;;17.30;99.90;;;;;;7307888;32;20155;-58
2023/09/19 09:12:55;;;;;;;8.02;1.95;;;17.20;99.90;;;;;;7309479;32;20163;-58
2023/09/19 09:16:59;;;;;;;8.23;1.62;;;17.20;99.90;;;;;;7301604;32;20108;-57
2023/09/19 09:21:01;;;;;;;7.35;1.45;;;17.40;99.90;;;;;;7295056;32;20584;-56
2023/09/19 09:25:04;;;;;;;9.98;1.80;;;17.40;99.90;;;;;;7294513;32;20227;-57
2023/09/19 09:29:06;;;;;;;10.88;2.47;;;17.80;99.90;;;;;;7302956;32;20331;-56
2023/09/19 09:33:13;;;;;;;14.82;2.10;;;18.30;99.90;;;;;;7311852;32;20325;-57
2023/09/19 09:37:19;;;;;;;9.90;1.98;;;19.20;99.90;;;;;;7310045;32;20142;-57
2023/09/19 09:41:37;;;;;;;8.18;1.92;;;19.60;99.90;;;;;;7306785;32;20630;-57
2023/09/19 09:45:48;;;;;;;8.63;1.80;;;19.50;99.90;;;;;;7299250;32;20119;-56
2023/09/19 09:49:54;;;;;;;11.25;2.00;;;19.00;99.90;;;;;;7308749;32;20149;-56
2023/09/19 09:54:12;;;;;;;8.98;1.73;;;18.90;99.90;;;;;;7305067;32;20112;-57
2023/09/19 09:58:23;;;;;;;8.93;1.98;;;18.70;99.90;;;;;;7301076;32;20153;-56
2023/09/19 10:02:32;;;;;;;10.82;1.80;;;19.10;99.90;;;;;;7311683;32;20945;-58
2023/09/19 10:06:46;;;;;;;9.77;1.60;;;19.30;99.90;;;;;;7307720;32;20228;-56
2023/09/19 10:11:02;;;;;;;7.37;1.60;;;19.70;99.90;;;;;;7310330;32;20107;-57
2023/09/19 10:15:07;;;;;;;7.72;1.73;;;19.70;99.90;;;;;;7314833;32;20138;-57
2023/09/19 10:19:09;;;;;;;7.00;1.55;;;20.20;99.90;;;;;;7315452;32;20134;-56
2023/09/19 10:23:12;;;;;;;7.82;1.55;;;20.10;99.90;;;;;;7313733;32;20259;-56
2023/09/19 10:27:16;;;;;;;8.15;1.48;;;20.60;99.90;;;;;;7307126;32;20103;-57
2023/09/19 10:31:25;;;;;;;7.60;1.95;;;20.70;99.90;;;;;;7298539;32;20254;-57
2023/09/19 10:35:28;;;;;;;7.87;1.83;;;20.60;99.90;;;;;;7304359;32;20152;-57
2023/09/19 10:39:31;;;;;;;10.77;2.00;;;20.90;99.90;;;;;;7306757;32;20123;-58
2023/09/19 10:43:35;;;;;;;7.50;1.83;;;20.80;99.90;;;;;;7306799;32;20112;-57
2023/09/19 10:47:38;;;;;;;8.82;1.45;;;20.30;99.90;;;;;;7304768;32;20120;-56
2023/09/19 10:51:42;;;;;;;8.07;1.55;;;19.80;99.90;;;;;;7300634;32;20543;-57
2023/09/19 10:56:00;;;;;;;6.65;1.67;;;19.50;99.90;;;;;;7314394;32;20186;-57
2023/09/19 11:00:22;;;;;;;7.45;1.92;;;19.60;99.90;;;;;;7307983;32;20314;-58
2023/09/19 11:04:26;;;;;;;9.95;1.92;;;19.60;99.90;;;;;;7299995;32;20126;-56
2023/09/19 11:08:28;;;;;;;8.02;1.80;;;19.80;99.90;;;;;;7307339;32;20153;-55
2023/09/19 11:12:40;;;;;;;6.20;1.50;;;20.10;99.90;;;;;;7306341;32;20126;-56
2023/09/19 11:17:05;;;;;;;8.82;1.60;;;20.80;99.90;;;;;;7310416;32;20108;-56
2023/09/19 11:21:30;;;;;;;6.45;1.55;;;20.90;99.90;;;;;;7304009;32;20175;-56
2023/09/19 11:25:47;;;;;;;6.82;1.52;;;20.40;99.90;;;;;;7306040;32;20100;-57
2023/09/19 11:30:30;;;;;;;8.80;1.62;;;20.60;99.90;;;;;;7299486;32;20111;-57
2023/09/19 11:34:38;;;;;;;8.73;1.77;;;20.40;99.90;;;;;;7296731;32;20171;-59
2023/09/19 11:38:47;;;;;;;8.60;1.98;;;19.90;99.90;;;;;;7305964;32;20163;-58
2023/09/19 11:42:53;;;;;;;9.10;1.90;;;19.40;99.90;;;;;;7301336;32;20239;-58
2023/09/19 11:46:58;;;;;;;10.52;1.77;;;19.30;99.90;;;;;;7298245;32;20111;-58
2023/09/19 11:51:06;;;;;;;6.50;1.58;;;19.80;99.90;;;;;;7299401;32;20134;-58
2023/09/19 11:55:10;;;;;;;7.15;1.35;;;20.10;99.90;;;;;;7296545;32;20130;-58
2023/09/19 11:59:23;;;;;;;10.27;1.77;;;19.70;99.90;;;;;;7305244;32;20125;-58
2023/09/19 12:03:30;;;;;;;7.45;1.62;;;19.70;99.90;;;;;;7300638;32;20518;-58
2023/09/19 12:07:47;;;;;;;7.07;1.58;;;20.00;99.90;;;;;;7301082;32;20100;-59
2023/09/19 12:11:50;;;;;;;6.05;1.45;;;20.10;99.90;;;;;;7305175;32;20103;-59
2023/09/19 12:15:51;;;;;;;6.95;2.03;;;19.90;99.90;;;;;;7306147;32;20132;-58
2023/09/19 12:19:55;;;;;;;7.70;1.52;;;19.60;99.90;;;;;;7304437;32;20984;-58
2023/09/19 12:24:11;;;;;;;5.30;1.33;;;19.60;99.90;;;;;;7300395;32;20113;-58
2023/09/19 12:28:22;;;;;;;5.35;1.92;;;19.90;99.90;;;;;;7281771;32;20199;-60
2023/09/19 12:32:44;;;;;;;7.55;1.83;;;20.00;99.90;;;;;;7293665;32;20807;-61
2023/09/19 12:36:46;;;;;;;8.88;1.40;;;20.10;99.90;;;;;;7305309;32;20235;-58
2023/09/19 12:40:51;;;;;;;3.65;1.00;;;20.10;99.90;;;;;;7301334;32;20104;-58
2023/09/19 12:44:56;;;;;;;9.40;1.50;;;20.20;99.90;;;;;;7295912;32;20466;-58
2023/09/19 12:49:20;;;;;;;2.92;0.95;;;20.10;99.90;;;;;;7311248;32;20124;-56
2023/09/19 12:53:25;;;;;;;8.43;1.60;;;20.20;99.90;;;;;;7304134;32;20589;-54
2023/09/19 12:57:27;;;;;;;6.65;1.42;;;20.20;99.90;;;;;;7311163;32;20132;-55
2023/09/19 13:01:29;;;;;;;8.52;1.37;;;20.30;99.90;;;;;;7301587;32;20092;-55
2023/09/19 13:06:02;;;;;;;5.95;1.40;;;20.30;99.90;;;;;;7300297;32;20099;-55
2023/09/19 13:10:04;;;;;;;4.28;1.15;;;20.30;99.90;;;;;;7313768;32;20199;-58
2023/09/19 13:14:31;;;;;;;8.90;1.33;;;20.40;99.90;;;;;;7290134;32;20146;-57
2023/09/19 13:18:42;;;;;;;6.87;1.25;;;20.50;99.90;;;;;;7307144;32;20522;-56
2023/09/19 13:22:49;;;;;;;8.40;1.25;;;20.60;99.90;;;;;;7313065;32;20118;-57
2023/09/19 13:26:51;;;;;;;4.65;0.90;;;20.40;99.90;;;;;;7304637;32;20135;-55
2023/09/19 13:30:52;;;;;;;3.75;1.08;;;20.50;99.90;;;;;;7306107;32;20111;-57
2023/09/19 13:34:54;;;;;;;5.15;0.90;;;20.20;99.90;;;;;;7309331;32;20769;-57
2023/09/19 13:38:56;;;;;;;5.07;0.90;;;20.20;99.90;;;;;;7308237;32;20575;-56
2023/09/19 13:42:58;;;;;;;7.22;1.20;;;20.10;99.90;;;;;;7307452;32;20510;-57
2023/09/19 13:47:01;;;;;;;4.85;1.02;;;20.00;99.90;;;;;;7313701;32;20111;-56
2023/09/19 13:51:03;;;;;;;3.83;0.95;;;20.20;99.90;;;;;;7302097;32;20565;-56
2023/09/19 13:55:06;;;;;;;5.37;1.35;;;20.00;99.90;;;;;;7301889;32;20566;-57
2023/09/19 13:59:09;;;;;;;5.70;0.82;;;19.70;99.90;;;;;;7302752;32;20131;-56
2023/09/19 14:03:11;;;;;;;5.65;0.93;;;19.40;99.90;;;;;;7304332;32;20096;-56
2023/09/19 14:07:15;;;;;;;4.65;0.90;;;19.40;99.90;;;;;;7300932;32;20507;-56
2023/09/19 14:11:16;;;;;;;4.97;1.20;;;19.40;99.90;;;;;;7298186;32;20226;-57
2023/09/19 14:15:18;;;;;;;4.68;0.90;;;19.30;99.90;;;;;;7301171;32;20161;-56
2023/09/19 14:19:20;;;;;;;1.80;0.70;;;19.20;99.90;;;;;;7300821;32;20117;-57
2023/09/19 14:23:23;;;;;;;5.53;0.73;;;19.20;99.90;;;;;;7298658;32;20801;-57
2023/09/19 14:27:25;;;;;;;1.75;0.70;;;19.20;99.90;;;;;;7300937;32;20132;-56
2023/09/19 14:31:27;;;;;;;4.12;0.90;;;19.20;99.90;;;;;;7299791;32;20301;-56
2023/09/19 14:35:29;;;;;;;5.12;0.65;;;19.10;99.90;;;;;;7305973;32;20190;-56
2023/09/19 14:39:31;;;;;;;4.00;0.77;;;19.10;99.90;;;;;;7305272;32;20414;-56
2023/09/19 14:43:33;;;;;;;6.25;0.75;;;19.10;99.90;;;;;;7301119;32;20316;-57
2023/09/19 14:47:35;;;;;;;5.87;1.02;;;19.10;99.90;;;;;;7304914;32;20116;-56
2023/09/19 14:51:39;;;;;;;2.20;0.80;;;19.10;99.90;;;;;;7302791;32;20220;-57
2023/09/19 14:55:44;;;;;;;2.75;0.70;;;19.10;99.90;;;;;;7315845;32;20830;-56
2023/09/19 14:59:46;;;;;;;6.70;0.82;;;19.00;99.90;;;;;;7314696;32;20123;-57
2023/09/19 15:03:49;;;;;;;5.37;0.65;;;19.00;99.90;;;;;;7314965;32;20108;-57
2023/09/19 15:07:51;;;;;;;6.03;0.65;;;18.90;99.90;;;;;;7309921;32;20190;-57
2023/09/19 15:11:53;;;;;;;6.47;0.85;;;18.80;99.90;;;;;;7300041;32;20104;-56
2023/09/19 15:16:00;;;;;;;2.45;0.80;;;18.80;99.90;;;;;;7299204;32;20107;-56
2023/09/19 15:20:03;;;;;;;2.70;0.50;;;18.80;99.90;;;;;;7294090;32;20108;-56
2023/09/19 15:24:05;;;;;;;3.25;0.80;;;18.80;99.90;;;;;;7301573;32;20100;-56
2023/09/19 15:28:08;;;;;;;2.95;0.57;;;18.80;99.90;;;;;;7308516;32;20187;-56
2023/09/19 15:32:10;;;;;;;5.07;0.85;;;18.80;99.90;;;;;;7317509;32;20562;-56
2023/09/19 15:36:14;;;;;;;4.68;0.60;;;18.80;99.90;;;;;;7306985;32;20545;-55
2023/09/19 15:40:16;;;;;;;4.78;0.90;;;18.80;99.90;;;;;;7311112;32;20131;-55
2023/09/19 15:44:18;;;;;;;4.30;0.82;;;18.80;99.90;;;;;;7313481;32;20202;-56
2023/09/19 15:48:21;;;;;;;4.50;0.68;;;19.00;99.90;;;;;;7315226;32;20178;-55
2023/09/19 15:52:26;;;;;;;2.67;0.70;;;19.10;99.90;;;;;;7310894;32;20487;-56
2023/09/19 15:56:28;;;;;;;2.45;0.50;;;19.10;99.90;;;;;;7306756;32;20191;-56
2023/09/19 16:00:29;;;;;;;5.07;0.77;;;19.00;99.90;;;;;;7310058;32;20122;-56
2023/09/19 16:04:31;;;;;;;3.85;0.82;;;19.00;99.90;;;;;;7303062;32;20127;-56
2023/09/19 16:08:38;;;;;;;5.55;0.70;;;19.00;99.90;;;;;;7306257;32;20234;-56
2023/09/19 16:12:40;;;;;;;2.95;0.60;;;18.80;99.90;;;;;;7309380;32;20184;-57
2023/09/19 16:16:42;;;;;;;5.47;0.80;;;18.80;99.90;;;;;;7305101;32;20127;-56
2023/09/19 16:20:44;;;;;;;2.78;0.88;;;18.80;99.90;;;;;;7296496;32;20160;-57
2023/09/19 16:24:46;;;;;;;4.55;0.70;;;18.80;99.90;;;;;;7297511;32;20230;-56
2023/09/19 16:28:50;;;;;;;4.80;0.60;;;18.80;99.90;;;;;;7301918;32;20251;-56
2023/09/19 16:32:52;;;;;;;4.03;1.00;;;18.70;99.90;;;;;;7305066;32;20135;-56
2023/09/19 16:36:54;;;;;;;4.80;0.55;;;18.70;99.90;;;;;;7303861;32;20099;-56
2023/09/19 16:41:00;;;;;;;4.32;0.60;;;18.70;99.90;;;;;;7305636;32;20537;-56
2023/09/19 16:45:02;;;;;;;3.85;0.70;;;18.70;99.90;;;;;;7305795;32;20101;-55
2023/09/19 16:49:04;;;;;;;3.42;0.60;;;18.70;99.90;;;;;;7300380;32;20099;-57
2023/09/19 16:53:06;;;;;;;2.03;0.70;;;18.70;99.90;;;;;;7293580;32;20156;-57
2023/09/19 16:57:11;;;;;;;2.20;0.80;;;18.70;99.90;;;;;;7300080;32;20191;-56
2023/09/19 17:01:14;;;;;;;4.03;0.85;;;18.70;99.90;;;;;;7295738;32;20128;-55
2023/09/19 17:05:18;;;;;;;3.90;0.75;;;18.60;99.90;;;;;;7292363;32;20214;-54
2023/09/19 17:09:20;;;;;;;2.45;0.60;;;18.50;99.90;;;;;;7305294;32;20112;-56
2023/09/19 17:13:21;;;;;;;2.47;0.60;;;18.50;99.90;;;;;;7298275;32;20530;-56
2023/09/19 17:17:23;;;;;;;4.75;0.98;;;18.60;99.90;;;;;;7305888;32;20154;-56
2023/09/19 17:21:26;;;;;;;4.75;0.75;;;18.50;99.90;;;;;;7300363;32;20107;-55
2023/09/19 17:25:31;;;;;;;5.22;0.80;;;18.50;99.90;;;;;;7302613;32;20560;-55
2023/09/19 17:29:33;;;;;;;3.70;1.00;;;18.40;99.90;;;;;;7310983;32;20151;-57
2023/09/19 17:33:35;;;;;;;2.35;0.65;;;18.40;99.90;;;;;;7294892;32;20107;-57
2023/09/19 17:37:40;;;;;;;3.05;0.80;;;18.40;99.90;;;;;;7296486;32;20100;-55
2023/09/19 17:41:42;;;;;;;2.55;0.75;;;18.40;99.90;;;;;;7299279;32;20178;-56
2023/09/19 17:45:43;;;;;;;1.87;0.65;;;18.30;99.90;;;;;;7300990;32;20533;-56
2023/09/19 17:49:49;;;;;;;4.82;0.90;;;18.30;99.90;;;;;;7300348;32;20127;-56
2023/09/19 17:53:51;;;;;;;2.25;0.88;;;18.20;99.90;;;;;;7303039;32;20240;-54
2023/09/19 17:57:53;;;;;;;4.53;0.90;;;18.30;99.90;;;;;;7308825;32;20779;-56
2023/09/19 18:01:58;;;;;;;3.78;0.77;;;18.30;99.90;;;;;;7302522;32;20115;-54
2023/09/19 18:06:00;;;;;;;1.77;0.82;;;18.30;99.90;;;;;;7307555;32;20100;-56
2023/09/19 18:10:04;;;;;;;3.42;0.88;;;18.20;99.90;;;;;;7303203;32;20450;-55
2023/09/19 18:14:05;;;;;;;4.90;0.70;;;18.20;99.90;;;;;;7309321;32;20469;-56
2023/09/19 18:18:07;;;;;;;3.78;0.77;;;18.20;99.90;;;;;;7308128;32;20169;-54
2023/09/19 18:22:11;;;;;;;3.72;0.90;;;18.10;99.90;;;;;;7303829;32;20097;-55
2023/09/19 18:26:13;;;;;;;2.83;1.00;;;18.20;99.90;;;;;;7311141;32;20118;-55
2023/09/19 18:30:16;;;;;;;2.67;0.80;;;18.20;99.90;;;;;;7309985;32;20095;-57
2023/09/19 18:34:17;;;;;;;4.87;0.90;;;18.20;99.90;;;;;;7311030;32;20151;-56
2023/09/19 18:38:19;;;;;;;4.05;1.00;;;18.20;99.90;;;;;;7303914;32;20183;-57
2023/09/19 18:42:22;;;;;;;3.08;0.82;;;18.10;99.90;;;;;;7315876;32;20143;-57
2023/09/19 18:46:24;;;;;;;3.90;1.23;;;18.20;99.90;;;;;;7313055;32;20104;-56
2023/09/19 18:50:27;;;;;;;4.50;1.00;;;18.20;99.90;;;;;;7305577;32;20521;-57
2023/09/19 18:54:29;;;;;;;4.00;1.00;;;18.10;99.90;;;;;;7298151;32;20203;-57
2023/09/19 18:58:31;;;;;;;6.72;1.20;;;18.10;99.90;;;;;;7310163;32;20489;-56
2023/09/19 19:02:33;;;;;;;3.40;1.05;;;18.10;99.90;;;;;;7309416;32;20276;-56
2023/09/19 19:06:35;;;;;;;4.05;0.93;;;18.10;99.90;;;;;;7308780;32;20544;-57
2023/09/19 19:10:41;;;;;;;2.17;1.08;;;18.00;99.90;;;;;;7302821;32;20149;-57
2023/09/19 19:14:46;;;;;;;3.50;0.90;;;18.00;99.90;;;;;;7304503;32;20104;-57
2023/09/19 19:18:49;;;;;;;5.80;0.90;;;18.10;99.90;;;;;;7308440;32;20502;-57
2023/09/19 19:22:51;;;;;;;8.48;1.08;;;18.00;99.90;;;;;;7300131;32;20266;-57
2023/09/19 19:26:52;;;;;;;4.55;0.80;;;18.00;99.90;;;;;;7300677;32;20589;-57
2023/09/19 19:30:54;;;;;;;5.28;1.10;;;18.00;99.90;;;;;;7289135;32;20112;-56
2023/09/19 19:34:56;;;;;;;5.18;1.08;;;17.90;99.90;;;;;;7299343;32;20100;-57
2023/09/19 19:38:58;;;;;;;3.08;0.88;;;17.90;99.90;;;;;;7309061;32;20104;-56
2023/09/19 19:43:02;;;;;;;7.28;0.93;;;17.90;99.90;;;;;;7293079;32;20119;-57
2023/09/19 19:47:04;;;;;;;5.00;1.37;;;17.90;99.90;;;;;;7303184;32;20130;-57
2023/09/19 19:51:08;;;;;;;3.28;0.93;;;17.90;99.90;;;;;;7307246;32;20095;-57
2023/09/19 19:55:10;;;;;;;5.37;1.02;;;17.90;99.90;;;;;;7298300;32;20096;-56
2023/09/19 19:59:13;;;;;;;8.13;1.10;;;17.90;99.90;;;;;;7308180;32;20141;-56
2023/09/19 20:03:14;;;;;;;3.80;1.00;;;17.90;99.90;;;;;;7304677;32;20123;-56
2023/09/19 20:07:16;;;;;;;4.32;0.98;;;17.90;99.90;;;;;;7304657;32;20522;-56
2023/09/19 20:11:26;;;;;;;2.97;1.00;;;17.80;99.90;;;;;;7300114;32;20115;-56
2023/09/19 20:15:29;;;;;;;4.60;1.20;;;17.80;99.90;;;;;;7301521;32;20206;-57
2023/09/19 20:19:33;;;;;;;5.25;1.20;;;17.80;99.90;;;;;;7304794;32;20483;-58
2023/09/19 20:23:41;;;;;;;7.40;1.08;;;17.80;99.90;;;;;;7301267;32;20238;-56
2023/09/19 20:27:43;;;;;;;4.22;1.10;;;17.80;99.90;;;;;;7299925;32;20639;-56
2023/09/19 20:31:45;;;;;;;2.40;0.73;;;17.80;99.90;;;;;;7301880;32;20251;-57
2023/09/19 20:35:47;;;;;;;6.37;0.95;;;17.80;99.90;;;;;;7303741;32;20104;-55
2023/09/19 20:39:48;;;;;;;3.53;1.70;;;17.80;99.90;;;;;;7302859;32;20273;-55
2023/09/19 20:43:50;;;;;;;5.20;1.37;;;17.80;99.90;;;;;;7308439;32;20244;-55
2023/09/19 20:47:52;;;;;;;6.87;1.55;;;17.80;99.90;;;;;;7306634;32;20827;-56
2023/09/19 20:51:56;;;;;;;3.53;0.90;;;17.70;99.90;;;;;;7309817;32;20171;-55
2023/09/19 20:56:02;;;;;;;4.70;1.25;;;17.70;99.90;;;;;;7308874;32;20542;-57
2023/09/19 21:00:08;;;;;;;4.12;1.17;;;17.60;99.90;;;;;;7301514;32;20189;-57
2023/09/19 21:04:10;;;;;;;3.60;1.02;;;17.60;99.90;;;;;;7305167;32;20120;-58
2023/09/19 21:08:12;;;;;;;5.43;1.27;;;17.50;99.90;;;;;;7296180;32;20510;-57